Time;durP1;ratioP1;P1;durP2;ratioP2;P2;SDS_P1;SDS_P2;PMS_P1;PMS_P2;Temp;Humidity;BMP_temperature;BMP_pressure;BME280_temperature;BME280_humidity;BME280_pressure;Samples;Min_cycle;Max_cycle;Signal;HPM_P1;HPM_P2
2022/01/16 00:00:50;;;;;;;5.40;3.73;;;4.40;99.90;;;;;;6184689;23;20603;-89
2022/01/16 00:05:59;;;;;;;12.10;5.13;;;4.50;99.90;;;;;;6188805;23;20611;-89
2022/01/16 00:08:25;;;;;;;2.37;2.27;;;4.50;99.90;;;;;;6159196;23;20209;-90
2022/01/16 00:10:51;;;;;;;5.40;4.93;;;4.40;99.90;;;;;;6159335;23;20201;-89
2022/01/16 00:13:17;;;;;;;9.80;5.13;;;4.50;99.90;;;;;;6159786;23;20194;-89
2022/01/16 00:15:44;;;;;;;7.10;3.37;;;4.40;99.90;;;;;;6159471;23;20182;-90
2022/01/16 00:21:04;;;;;;;6.80;5.83;;;4.50;99.90;;;;;;6206140;23;20629;-89
2022/01/16 00:23:30;;;;;;;7.67;3.30;;;4.40;99.90;;;;;;6159059;23;20225;-89
2022/01/16 00:25:56;;;;;;;8.13;4.73;;;4.50;99.90;;;;;;6158843;23;20197;-89
2022/01/16 00:28:24;;;;;;;5.47;4.80;;;4.50;99.90;;;;;;6209353;23;20212;-89
2022/01/16 00:30:51;;;;;;;3.20;2.93;;;4.40;99.90;;;;;;6208759;23;20190;-90
2022/01/16 00:33:17;;;;;;;12.57;7.63;;;4.40;99.90;;;;;;6159750;23;20253;-90
2022/01/16 00:35:43;;;;;;;5.60;4.90;;;4.40;99.90;;;;;;6208516;23;20254;-89
2022/01/16 00:38:09;;;;;;;4.40;3.97;;;4.40;99.90;;;;;;6183950;23;20206;-89
2022/01/16 00:40:36;;;;;;;12.30;6.20;;;4.40;99.90;;;;;;6183437;23;20208;-89
2022/01/16 00:43:02;;;;;;;6.73;4.93;;;4.40;99.90;;;;;;6208986;23;20193;-89
2022/01/16 00:45:34;;;;;;;20.87;5.37;;;4.50;99.90;;;;;;6184163;23;20498;-89
2022/01/16 00:48:04;;;;;;;5.93;5.30;;;4.40;99.90;;;;;;6185821;23;20153;-89
2022/01/16 00:50:32;;;;;;;8.07;5.67;;;4.40;99.90;;;;;;6183756;23;20638;-89
2022/01/16 00:52:58;;;;;;;5.13;3.43;;;4.50;99.90;;;;;;6209176;23;20202;-89
2022/01/16 00:55:24;;;;;;;7.47;6.27;;;4.60;99.90;;;;;;6158822;23;20213;-89
2022/01/16 00:57:50;;;;;;;6.63;4.20;;;4.60;99.90;;;;;;6183562;23;20193;-90
2022/01/16 01:00:16;;;;;;;18.57;6.10;;;4.50;99.90;;;;;;6184192;23;20162;-89
2022/01/16 01:02:42;;;;;;;12.67;5.00;;;4.50;99.90;;;;;;6208224;23;20202;-89
2022/01/16 01:05:08;;;;;;;19.67;6.43;;;4.60;99.90;;;;;;6183958;23;20631;-89
2022/01/16 01:07:35;;;;;;;6.97;5.10;;;4.50;99.90;;;;;;6183248;23;20707;-89
2022/01/16 01:10:03;;;;;;;11.80;8.43;;;4.50;99.90;;;;;;6183570;23;20221;-89
2022/01/16 01:12:40;;;;;;;3.27;3.13;;;4.60;99.90;;;;;;6208474;23;20158;-89
2022/01/16 01:15:07;;;;;;;12.83;8.17;;;4.50;99.90;;;;;;6164783;23;20178;-90
2022/01/16 01:17:44;;;;;;;11.80;5.93;;;4.60;99.90;;;;;;6183839;23;20208;-89
2022/01/16 01:20:16;;;;;;;7.57;3.87;;;4.50;99.90;;;;;;6160628;23;20204;-89
2022/01/16 01:22:43;;;;;;;8.07;5.30;;;4.50;99.90;;;;;;6207124;23;20194;-89
2022/01/16 01:25:12;;;;;;;13.67;10.23;;;4.50;99.90;;;;;;6183437;23;20189;-89
2022/01/16 01:27:41;;;;;;;14.93;7.97;;;4.50;99.90;;;;;;6208452;23;20245;-89
2022/01/16 01:30:09;;;;;;;9.63;4.43;;;4.60;99.90;;;;;;6208983;23;20154;-89
2022/01/16 01:32:40;;;;;;;6.83;6.30;;;4.60;99.90;;;;;;6208364;23;20272;-89
2022/01/16 01:35:09;;;;;;;18.30;7.90;;;4.50;99.90;;;;;;6208594;23;20285;-89
2022/01/16 01:37:35;;;;;;;11.07;8.27;;;4.50;99.90;;;;;;6207978;23;20201;-89
2022/01/16 01:40:04;;;;;;;11.83;5.67;;;4.50;99.90;;;;;;6183932;23;20201;-89
2022/01/16 01:42:41;;;;;;;20.53;7.43;;;4.60;99.90;;;;;;6208142;23;20170;-89
2022/01/16 01:53:21;;;;;;;10.07;6.40;;;4.60;99.90;;;;;;6208499;23;20212;-89
2022/01/16 01:55:46;;;;;;;11.47;5.53;;;4.60;99.90;;;;;;6183373;23;20210;-89
2022/01/16 01:58:14;;;;;;;12.47;5.03;;;4.60;99.90;;;;;;6158443;23;20526;-90
2022/01/16 02:00:41;;;;;;;13.00;5.40;;;4.60;99.90;;;;;;6159304;23;20241;-90
2022/01/16 02:05:52;;;;;;;9.20;6.93;;;4.60;99.90;;;;;;6187347;23;20649;-89
2022/01/16 02:08:18;;;;;;;20.67;10.63;;;4.60;99.90;;;;;;6183013;23;20226;-89
2022/01/16 02:10:43;;;;;;;13.60;8.73;;;4.60;99.90;;;;;;6207891;23;20221;-89
2022/01/16 02:13:20;;;;;;;8.37;6.57;;;4.60;99.90;;;;;;6183143;23;20200;-89
2022/01/16 02:31:43;;;;;;;5.90;4.80;;;4.90;99.90;;;;;;6207519;23;20671;-89
2022/01/16 02:36:58;;;;;;;14.23;6.93;;;4.90;99.90;;;;;;6186952;23;20212;-89
2022/01/16 02:39:29;;;;;;;10.33;5.60;;;5.00;99.90;;;;;;6184293;23;20197;-89
2022/01/16 02:41:57;;;;;;;12.90;8.23;;;5.00;99.90;;;;;;6208510;23;20180;-89
2022/01/16 02:44:32;;;;;;;7.60;6.80;;;5.00;99.90;;;;;;6183470;23;20205;-89
2022/01/16 02:46:59;;;;;;;9.73;5.70;;;5.10;99.90;;;;;;6161906;23;20201;-89
2022/01/16 02:49:30;;;;;;;11.10;9.10;;;5.10;99.90;;;;;;6208261;23;20193;-90
2022/01/16 02:52:03;;;;;;;13.23;7.00;;;5.20;99.90;;;;;;6207709;23;20197;-90
2022/01/16 02:54:34;;;;;;;21.40;6.17;;;5.20;99.90;;;;;;6207828;23;20372;-89
2022/01/16 02:57:00;;;;;;;15.27;6.40;;;5.30;99.90;;;;;;6184758;23;20241;-89
2022/01/16 02:59:26;;;;;;;10.67;7.10;;;5.20;99.90;;;;;;6182653;23;20267;-89
2022/01/16 03:01:52;;;;;;;8.13;5.63;;;5.30;99.90;;;;;;6182855;23;20204;-90
2022/01/16 03:04:18;;;;;;;12.83;9.00;;;5.30;99.90;;;;;;6182585;23;20189;-89
2022/01/16 03:06:44;;;;;;;27.87;8.27;;;5.30;99.90;;;;;;6182762;23;20173;-90
2022/01/16 03:09:10;;;;;;;14.73;8.93;;;5.30;99.90;;;;;;6208857;23;20163;-90
2022/01/16 03:11:42;;;;;;;18.50;6.27;;;5.30;99.90;;;;;;6158191;23;20273;-89
2022/01/16 03:14:14;;;;;;;10.83;7.67;;;5.40;99.90;;;;;;6183574;23;20236;-89
2022/01/16 03:16:43;;;;;;;19.93;6.37;;;5.50;99.90;;;;;;6207882;23;20201;-89
2022/01/16 03:21:54;;;;;;;12.03;9.40;;;5.50;99.90;;;;;;6208931;23;20205;-89
2022/01/16 03:24:36;;;;;;;20.57;7.67;;;5.50;99.90;;;;;;6185087;23;20548;-89
2022/01/16 03:27:20;;;;;;;6.80;5.87;;;5.60;99.90;;;;;;6210164;23;20174;-89
2022/01/16 03:29:50;;;;;;;11.33;7.07;;;5.60;99.90;;;;;;6184989;23;20259;-89
2022/01/16 03:32:18;;;;;;;15.53;7.23;;;5.60;99.90;;;;;;6209625;23;20226;-89
2022/01/16 03:34:44;;;;;;;8.60;6.90;;;5.70;99.90;;;;;;6209444;23;20202;-89
2022/01/16 03:37:10;;;;;;;18.03;8.60;;;5.70;99.90;;;;;;6184415;23;20193;-89
2022/01/16 03:39:37;;;;;;;15.83;10.70;;;5.70;99.90;;;;;;6183966;23;20241;-89
2022/01/16 03:42:03;;;;;;;12.93;8.03;;;5.70;99.90;;;;;;6210438;23;20220;-89
2022/01/16 03:44:29;;;;;;;35.23;8.40;;;5.70;99.90;;;;;;6209411;23;20202;-90
2022/01/16 03:46:56;;;;;;;24.57;8.57;;;5.80;99.90;;;;;;6184705;23;20215;-89
2022/01/16 03:49:26;;;;;;;14.93;6.83;;;5.80;99.90;;;;;;6209684;23;20534;-89
2022/01/16 03:51:54;;;;;;;15.00;9.50;;;5.80;99.90;;;;;;6209372;23;20975;-89
2022/01/16 03:54:23;;;;;;;13.27;9.27;;;5.80;99.90;;;;;;6185542;23;20181;-89
2022/01/16 03:56:49;;;;;;;12.23;8.23;;;5.90;99.90;;;;;;6209001;23;20255;-89
2022/01/16 03:59:16;;;;;;;11.13;6.90;;;5.90;99.90;;;;;;6209155;23;20197;-89
2022/01/16 04:01:42;;;;;;;16.83;7.43;;;5.90;99.90;;;;;;6183844;23;20225;-89
2022/01/16 04:04:10;;;;;;;8.93;6.77;;;5.90;99.90;;;;;;6209027;23;20325;-89
2022/01/16 04:06:35;;;;;;;19.37;10.53;;;5.90;99.90;;;;;;6208981;23;20491;-89
2022/01/16 04:09:03;;;;;;;11.40;10.27;;;6.00;99.90;;;;;;6185051;23;20158;-89
2022/01/16 04:11:30;;;;;;;20.37;9.10;;;6.00;99.90;;;;;;6209501;23;20201;-90
2022/01/16 04:14:09;;;;;;;22.20;8.57;;;6.00;99.90;;;;;;6208997;23;20205;-90
2022/01/16 04:16:36;;;;;;;22.53;8.57;;;6.00;99.90;;;;;;6164529;23;20205;-89
2022/01/16 04:19:03;;;;;;;10.73;7.83;;;6.00;99.90;;;;;;6184597;23;20270;-89
2022/01/16 04:21:29;;;;;;;13.83;7.53;;;6.00;99.90;;;;;;6208855;23;20154;-89
2022/01/16 04:23:56;;;;;;;21.23;9.03;;;6.00;99.90;;;;;;6159971;23;20166;-89
2022/01/16 04:26:25;;;;;;;10.80;8.50;;;6.10;99.90;;;;;;6184124;23;20611;-89
2022/01/16 04:28:52;;;;;;;17.07;9.63;;;6.10;99.90;;;;;;6184596;23;20201;-89
2022/01/16 04:31:17;;;;;;;12.47;7.60;;;6.10;99.90;;;;;;6184830;23;20190;-89
2022/01/16 04:33:44;;;;;;;21.33;9.07;;;6.10;99.90;;;;;;6183625;23;20213;-90
2022/01/16 04:36:11;;;;;;;10.80;8.87;;;6.10;99.90;;;;;;6184837;23;20166;-89
2022/01/16 04:38:41;;;;;;;15.00;9.40;;;6.20;99.90;;;;;;6208859;23;20240;-89
2022/01/16 04:43:52;;;;;;;19.07;9.23;;;6.20;99.90;;;;;;6208994;23;20277;-89
2022/01/16 04:46:20;;;;;;;10.33;6.10;;;6.20;99.90;;;;;;6160363;23;20233;-89
2022/01/16 04:48:47;;;;;;;14.63;9.30;;;6.20;99.90;;;;;;6209168;23;20681;-89
2022/01/16 04:51:13;;;;;;;9.97;8.53;;;6.20;99.90;;;;;;6184703;23;20193;-89
2022/01/16 04:53:39;;;;;;;11.67;7.80;;;6.20;99.90;;;;;;6158739;23;20201;-89
2022/01/16 04:56:06;;;;;;;11.83;7.20;;;6.30;99.90;;;;;;6159013;23;20662;-89
2022/01/16 04:58:33;;;;;;;13.33;8.47;;;6.30;99.90;;;;;;6183761;23;20194;-89
2022/01/16 05:00:59;;;;;;;27.60;10.73;;;6.30;99.90;;;;;;6208283;23;20276;-89
2022/01/16 05:03:26;;;;;;;22.03;6.87;;;6.30;99.90;;;;;;6159886;23;20245;-90
2022/01/16 05:05:52;;;;;;;18.77;10.60;;;6.30;99.90;;;;;;6183802;23;20200;-89
2022/01/16 05:08:18;;;;;;;6.80;6.33;;;6.30;99.90;;;;;;6210037;23;20285;-89
2022/01/16 05:10:44;;;;;;;40.80;11.63;;;6.40;99.90;;;;;;6183575;23;20659;-89
2022/01/16 05:18:37;;;;;;;11.80;8.87;;;6.30;99.90;;;;;;6210102;23;20150;-89
2022/01/16 05:21:03;;;;;;;10.87;7.10;;;6.40;99.90;;;;;;6160033;23;20162;-89
2022/01/16 05:23:29;;;;;;;7.97;5.93;;;6.40;99.90;;;;;;6183321;23;20399;-89
2022/01/16 05:25:55;;;;;;;15.20;9.37;;;6.30;99.90;;;;;;6208281;23;20537;-89
2022/01/16 05:28:21;;;;;;;14.23;6.40;;;6.30;99.90;;;;;;6208656;23;20194;-89
2022/01/16 05:30:47;;;;;;;16.60;9.47;;;6.40;99.90;;;;;;6208915;23;20519;-89
2022/01/16 05:33:13;;;;;;;11.40;7.63;;;6.40;99.90;;;;;;6184357;23;20216;-89
2022/01/16 05:35:39;;;;;;;23.40;9.47;;;6.40;99.90;;;;;;6183606;23;20229;-89
2022/01/16 05:38:05;;;;;;;13.67;9.67;;;6.40;99.90;;;;;;6183077;23;20540;-89
2022/01/16 05:40:31;;;;;;;21.13;7.97;;;6.50;99.90;;;;;;6183813;23;20201;-89
2022/01/16 05:42:58;;;;;;;13.73;7.67;;;6.50;99.90;;;;;;6208492;23;20193;-89
2022/01/16 05:45:24;;;;;;;21.40;8.73;;;6.50;99.90;;;;;;6159507;23;20200;-89
2022/01/16 05:47:50;;;;;;;7.63;7.00;;;6.60;99.90;;;;;;6183321;23;20219;-89
2022/01/16 05:50:16;;;;;;;14.17;8.37;;;6.50;99.90;;;;;;6183053;23;20229;-89
2022/01/16 05:52:42;;;;;;;9.47;7.90;;;6.60;99.90;;;;;;6183074;23;20202;-89
2022/01/16 05:55:09;;;;;;;15.43;9.90;;;6.70;99.90;;;;;;6208131;23;20198;-89
2022/01/16 05:57:35;;;;;;;14.83;7.00;;;6.70;99.90;;;;;;6183550;23;20209;-89
2022/01/16 06:00:00;;;;;;;18.23;8.43;;;6.70;99.90;;;;;;6184215;23;20584;-89
2022/01/16 06:02:26;;;;;;;7.77;7.00;;;6.80;99.90;;;;;;6158439;23;20232;-89
2022/01/16 06:04:52;;;;;;;8.87;5.77;;;6.80;99.90;;;;;;6208024;23;20197;-89
2022/01/16 06:07:19;;;;;;;20.03;11.37;;;6.90;99.90;;;;;;6158771;23;20415;-89
2022/01/16 06:09:45;;;;;;;19.13;9.03;;;6.80;99.90;;;;;;6208390;23;20212;-89
2022/01/16 06:12:11;;;;;;;22.13;9.93;;;6.90;99.90;;;;;;6184211;23;20548;-89
2022/01/16 06:14:37;;;;;;;14.33;8.93;;;6.90;99.90;;;;;;6182905;23;20201;-89
2022/01/16 06:17:03;;;;;;;8.27;7.27;;;6.90;99.90;;;;;;6207508;23;20194;-89
2022/01/16 06:19:29;;;;;;;15.93;7.73;;;6.90;99.90;;;;;;6208152;23;20190;-89
2022/01/16 06:21:55;;;;;;;7.20;6.50;;;6.90;99.90;;;;;;6158365;23;21010;-89
2022/01/16 06:24:21;;;;;;;13.83;7.30;;;7.00;99.90;;;;;;6183931;23;20170;-89
2022/01/16 06:26:49;;;;;;;9.67;6.57;;;7.10;99.90;;;;;;6183681;23;20232;-89
2022/01/16 06:29:16;;;;;;;7.60;6.90;;;7.20;99.90;;;;;;6183726;23;20198;-89
2022/01/16 06:31:41;;;;;;;6.87;4.90;;;7.20;99.90;;;;;;6208096;23;20204;-89
2022/01/16 06:34:07;;;;;;;8.60;4.80;;;7.20;99.90;;;;;;6182984;23;20285;-89
2022/01/16 06:36:34;;;;;;;4.47;4.00;;;7.30;99.90;;;;;;6208276;23;20477;-89
2022/01/16 06:39:02;;;;;;;7.50;6.63;;;7.30;99.90;;;;;;6183418;23;21056;-89
2022/01/16 06:41:44;;;;;;;5.93;3.60;;;7.40;99.90;;;;;;6207470;23;20199;-89
2022/01/16 06:44:15;;;;;;;7.57;6.50;;;7.30;99.90;;;;;;6183394;23;20198;-89
2022/01/16 06:46:41;;;;;;;7.87;5.00;;;7.30;99.90;;;;;;6182150;23;20209;-89
2022/01/16 06:49:07;;;;;;;8.70;3.83;;;7.40;99.90;;;;;;6207606;23;20198;-89
2022/01/16 06:51:32;;;;;;;9.87;3.90;;;7.40;99.90;;;;;;6183078;23;20166;-89
2022/01/16 06:54:00;;;;;;;12.13;5.13;;;7.40;99.90;;;;;;6158793;23;20159;-89
2022/01/16 06:56:26;;;;;;;3.93;3.63;;;7.40;99.90;;;;;;6182692;23;20281;-89
2022/01/16 06:58:51;;;;;;;13.40;5.17;;;7.40;99.90;;;;;;6160145;23;20217;-89
2022/01/16 07:01:17;;;;;;;4.53;3.20;;;7.40;99.90;;;;;;6183437;23;20703;-89
2022/01/16 07:03:43;;;;;;;4.03;3.30;;;7.40;99.90;;;;;;6171050;23;20158;-89
2022/01/16 07:06:09;;;;;;;8.90;4.90;;;7.40;99.90;;;;;;6210596;23;20213;-89
2022/01/16 07:08:35;;;;;;;17.53;3.67;;;7.40;99.90;;;;;;6209730;23;20658;-89
2022/01/16 07:11:02;;;;;;;8.27;3.53;;;7.50;99.90;;;;;;6185056;23;20276;-89
2022/01/16 07:13:28;;;;;;;4.50;3.03;;;7.40;99.90;;;;;;6184677;23;20507;-89
2022/01/16 07:15:55;;;;;;;7.63;5.10;;;7.40;99.90;;;;;;6184642;23;20204;-89
2022/01/16 07:18:21;;;;;;;22.53;4.80;;;7.40;99.90;;;;;;6210956;23;20714;-88
2022/01/16 07:20:47;;;;;;;5.27;3.90;;;7.40;99.90;;;;;;6184788;23;20678;-89
2022/01/16 07:23:14;;;;;;;8.57;4.23;;;7.50;99.90;;;;;;6210359;23;20197;-88
2022/01/16 07:25:41;;;;;;;4.23;3.60;;;7.50;99.90;;;;;;6185081;23;20201;-89
2022/01/16 07:28:08;;;;;;;8.57;4.47;;;7.50;99.90;;;;;;6185000;23;20244;-89
2022/01/16 07:30:34;;;;;;;6.70;4.93;;;7.50;99.90;;;;;;6160136;23;20165;-90
2022/01/16 07:33:00;;;;;;;13.70;6.10;;;7.50;99.90;;;;;;6210314;23;20158;-90
2022/01/16 07:35:26;;;;;;;2.60;2.40;;;7.60;99.90;;;;;;6184209;23;20228;-89
2022/01/16 07:37:52;;;;;;;6.50;4.90;;;7.50;99.90;;;;;;6183461;23;20202;-89
2022/01/16 07:40:18;;;;;;;3.60;2.93;;;7.60;99.90;;;;;;6159720;23;20292;-90
2022/01/16 07:42:44;;;;;;;5.73;3.70;;;7.60;99.90;;;;;;6184571;23;20163;-89
2022/01/16 07:45:10;;;;;;;4.87;3.73;;;7.70;99.90;;;;;;6185009;23;20269;-92
2022/01/16 07:47:37;;;;;;;4.87;4.23;;;7.80;99.90;;;;;;6160477;23;20273;-92
2022/01/16 07:50:03;;;;;;;7.50;6.10;;;7.80;99.90;;;;;;6159985;23;20202;-92
2022/01/16 07:52:29;;;;;;;6.40;4.27;;;7.80;99.90;;;;;;6160210;23;20643;-92
2022/01/16 07:54:55;;;;;;;6.20;4.77;;;7.80;99.90;;;;;;6159724;23;20201;-91
2022/01/16 07:57:21;;;;;;;8.47;4.83;;;7.80;99.90;;;;;;6184967;23;20599;-92
2022/01/16 07:59:46;;;;;;;5.33;4.83;;;7.80;99.90;;;;;;6159430;23;20210;-91
2022/01/16 08:02:12;;;;;;;2.70;2.50;;;7.90;99.90;;;;;;6184525;23;20201;-91
2022/01/16 08:04:38;;;;;;;4.07;3.70;;;7.80;99.90;;;;;;6159488;23;20228;-91
2022/01/16 08:07:05;;;;;;;7.77;5.57;;;7.90;99.90;;;;;;6184451;23;20248;-91
2022/01/16 08:09:31;;;;;;;6.97;5.20;;;7.90;99.90;;;;;;6160077;23;20237;-92
2022/01/16 08:11:57;;;;;;;11.60;6.80;;;7.90;99.90;;;;;;6160030;23;20592;-91
2022/01/16 08:14:23;;;;;;;9.27;5.33;;;7.90;99.90;;;;;;6159755;23;20205;-91
2022/01/16 08:16:49;;;;;;;9.73;5.53;;;7.90;99.90;;;;;;6184305;23;20204;-91
2022/01/16 08:19:14;;;;;;;7.63;6.30;;;7.90;99.90;;;;;;6159826;23;20278;-92
2022/01/16 08:21:40;;;;;;;6.60;4.63;;;8.00;99.90;;;;;;6185204;23;20154;-92
2022/01/16 08:24:06;;;;;;;6.13;4.40;;;8.00;99.90;;;;;;6160737;23;20217;-90
2022/01/16 08:26:32;;;;;;;5.97;4.63;;;8.00;99.90;;;;;;6184136;23;20675;-90
2022/01/16 08:28:58;;;;;;;9.30;5.60;;;8.00;99.90;;;;;;6158646;23;20202;-91
2022/01/16 08:31:24;;;;;;;5.80;4.27;;;8.00;99.90;;;;;;6184191;23;20240;-90
2022/01/16 08:33:51;;;;;;;5.93;5.07;;;8.10;99.90;;;;;;6184109;23;20185;-90
2022/01/16 08:36:16;;;;;;;4.13;3.87;;;8.10;99.90;;;;;;6184599;23;20538;-91
2022/01/16 08:38:43;;;;;;;9.33;5.90;;;8.10;99.90;;;;;;6184044;23;20297;-90
2022/01/16 08:41:09;;;;;;;8.50;5.70;;;8.20;99.90;;;;;;6185365;23;20202;-91
2022/01/16 08:43:34;;;;;;;4.50;3.83;;;8.20;99.90;;;;;;6160475;23;20209;-91
2022/01/16 08:46:00;;;;;;;4.23;2.87;;;8.30;99.90;;;;;;6184219;23;20190;-92
2022/01/16 08:48:28;;;;;;;4.10;3.10;;;8.30;99.90;;;;;;6185805;23;20241;-90
2022/01/16 08:50:54;;;;;;;6.97;6.27;;;8.30;99.90;;;;;;6186042;23;20154;-93
2022/01/16 08:53:20;;;;;;;4.50;3.10;;;8.30;99.90;;;;;;6209530;23;20194;-92
2022/01/16 08:55:46;;;;;;;11.43;4.73;;;8.30;99.90;;;;;;6209046;23;20263;-92
2022/01/16 08:58:11;;;;;;;19.57;7.37;;;8.30;99.90;;;;;;6160189;23;20644;-92
2022/01/16 09:00:37;;;;;;;10.03;4.87;;;8.30;99.90;;;;;;6159402;23;20209;-91
2022/01/16 09:03:03;;;;;;;4.07;3.67;;;8.30;99.90;;;;;;6184490;23;20169;-91
2022/01/16 09:05:29;;;;;;;4.63;4.17;;;8.40;99.90;;;;;;6184510;23;20213;-93
2022/01/16 09:07:55;;;;;;;8.33;6.10;;;8.40;99.90;;;;;;6208434;23;21194;-93
2022/01/16 09:10:22;;;;;;;10.43;5.93;;;8.40;99.90;;;;;;6183842;23;20647;-91
2022/01/16 09:12:48;;;;;;;6.97;6.30;;;8.50;99.90;;;;;;6159069;23;20198;-93
2022/01/16 09:15:14;;;;;;;16.13;5.30;;;8.50;99.90;;;;;;6160108;23;20268;-92
2022/01/16 09:17:41;;;;;;;9.80;3.50;;;8.50;99.90;;;;;;6208659;23;20263;-93
2022/01/16 09:20:08;;;;;;;6.83;5.60;;;8.50;99.90;;;;;;6183587;23;20197;-93
2022/01/16 09:22:36;;;;;;;7.40;6.17;;;8.50;99.90;;;;;;6208637;23;20194;-91
2022/01/16 09:25:06;;;;;;;5.90;5.30;;;8.60;99.90;;;;;;6208588;23;20267;-92
2022/01/16 09:27:33;;;;;;;3.30;3.00;;;8.60;99.90;;;;;;6184617;23;20577;-91
2022/01/16 09:29:59;;;;;;;18.97;5.73;;;8.60;99.90;;;;;;6158585;23;20212;-92
2022/01/16 09:32:26;;;;;;;11.47;5.40;;;8.60;99.90;;;;;;6183431;23;20205;-92
2022/01/16 09:34:52;;;;;;;5.63;4.17;;;8.70;99.90;;;;;;6183145;23;20648;-91
2022/01/16 09:37:17;;;;;;;5.40;4.90;;;8.60;99.90;;;;;;6208784;23;20197;-95
2022/01/16 09:39:43;;;;;;;3.40;3.10;;;8.70;99.90;;;;;;6207896;23;21052;-91
2022/01/16 09:42:09;;;;;;;11.47;4.77;;;8.70;99.90;;;;;;6159253;23;20158;-92
2022/01/16 09:44:39;;;;;;;7.40;3.33;;;8.70;99.90;;;;;;6208352;23;20300;-93
2022/01/16 09:47:06;;;;;;;3.70;3.33;;;8.70;99.90;;;;;;6208108;23;20204;-95
2022/01/16 09:49:32;;;;;;;6.83;4.30;;;8.70;99.90;;;;;;6183775;23;20217;-92
2022/01/16 09:51:58;;;;;;;11.03;4.97;;;8.80;99.90;;;;;;6208619;23;20194;-94
2022/01/16 09:54:25;;;;;;;6.47;4.60;;;8.80;99.90;;;;;;6183932;23;20182;-93
2022/01/16 09:56:51;;;;;;;5.90;4.50;;;8.80;99.90;;;;;;6183338;23;20209;-93
2022/01/16 09:59:17;;;;;;;10.40;4.33;;;8.80;99.90;;;;;;6158925;23;20285;-92
2022/01/16 10:01:43;;;;;;;4.87;3.57;;;8.80;99.90;;;;;;6158744;23;20647;-93
2022/01/16 10:04:29;;;;;;;6.93;4.23;;;8.80;99.90;;;;;;6158484;23;20277;-94
2022/01/16 10:06:57;;;;;;;4.97;3.57;;;8.80;99.90;;;;;;6184035;23;20710;-93
2022/01/16 10:09:22;;;;;;;3.27;2.27;;;8.90;99.90;;;;;;6184131;23;20159;-92
2022/01/16 10:11:57;;;;;;;3.90;3.07;;;8.80;99.90;;;;;;6182957;23;20229;-94
2022/01/16 10:14:30;;;;;;;5.03;3.30;;;8.90;99.90;;;;;;6182844;23;20275;-92
2022/01/16 10:16:57;;;;;;;8.63;5.23;;;8.90;99.90;;;;;;6208150;23;20551;-92
2022/01/16 10:19:24;;;;;;;6.80;3.63;;;8.90;99.90;;;;;;6207581;23;20194;-93
2022/01/16 10:21:51;;;;;;;15.47;4.93;;;8.90;99.90;;;;;;6208476;23;20277;-93
2022/01/16 10:24:23;;;;;;;7.80;4.80;;;8.90;99.90;;;;;;6159214;23;20525;-93
2022/01/16 10:27:11;;;;;;;10.67;4.47;;;9.00;99.90;;;;;;6208536;23;20202;-93
2022/01/16 10:29:46;;;;;;;5.00;4.17;;;8.90;99.90;;;;;;6207521;23;20212;-94
2022/01/16 10:32:19;;;;;;;2.60;1.87;;;8.90;99.90;;;;;;6209070;23;20325;-93
2022/01/16 10:34:48;;;;;;;3.43;3.03;;;9.00;99.90;;;;;;6208350;23;20663;-93
2022/01/16 10:37:30;;;;;;;2.73;2.53;;;9.00;99.90;;;;;;6208884;23;20186;-94
2022/01/16 10:39:58;;;;;;;14.70;3.63;;;9.00;99.90;;;;;;6208251;23;20280;-92
2022/01/16 10:42:24;;;;;;;9.50;3.00;;;9.00;99.90;;;;;;6209158;23;20168;-93
2022/01/16 10:45:23;;;;;;;2.97;2.73;;;9.00;99.90;;;;;;6184845;23;20647;-94
2022/01/16 10:47:53;;;;;;;2.07;1.97;;;9.00;99.90;;;;;;6181030;23;20225;-93
2022/01/16 10:50:22;;;;;;;2.43;2.23;;;9.00;99.90;;;;;;6159161;23;20201;-92
2022/01/16 10:52:57;;;;;;;6.97;2.27;;;9.00;99.90;;;;;;6208021;23;20233;-93
2022/01/16 10:55:31;;;;;;;3.77;3.20;;;9.00;99.90;;;;;;6208346;23;20257;-92
2022/01/16 10:58:03;;;;;;;4.97;2.73;;;9.00;99.90;;;;;;6209234;23;20205;-93
2022/01/16 11:00:29;;;;;;;3.27;1.77;;;9.10;99.90;;;;;;6215630;23;20154;-93
2022/01/16 11:02:59;;;;;;;6.07;2.63;;;9.10;99.90;;;;;;6185752;23;20161;-94
2022/01/16 11:05:27;;;;;;;3.93;3.37;;;9.10;99.90;;;;;;6208210;23;20746;-92
2022/01/16 11:08:06;;;;;;;3.57;2.77;;;9.10;99.90;;;;;;6183800;23;20190;-93
2022/01/16 11:10:47;;;;;;;3.13;1.63;;;9.10;99.90;;;;;;6211296;23;20273;-92
2022/01/16 11:13:15;;;;;;;11.60;3.03;;;9.20;99.90;;;;;;6211165;23;20647;-91
2022/01/16 11:15:51;;;;;;;2.87;1.70;;;9.10;99.90;;;;;;6207740;23;20269;-91
2022/01/16 11:18:19;;;;;;;7.00;2.30;;;9.20;99.90;;;;;;6209426;23;20214;-91
2022/01/16 11:20:52;;;;;;;3.70;1.87;;;9.20;99.90;;;;;;6157884;23;20197;-92
2022/01/16 11:24:23;;;;;;;3.83;1.77;;;9.30;99.90;;;;;;6183290;23;20628;-92
2022/01/16 11:26:07;;;;;;;1.60;1.50;;;9.30;99.90;;;;;;6192820;23;20645;-93
2022/01/16 11:28:33;;;;;;;3.43;2.57;;;9.30;99.90;;;;;;6157930;23;20182;-93
2022/01/16 11:31:02;;;;;;;1.97;1.77;;;9.30;99.90;;;;;;6157874;23;20190;-91
2022/01/16 11:33:31;;;;;;;1.90;1.37;;;9.30;99.90;;;;;;6183447;23;20169;-93
2022/01/16 11:36:07;;;;;;;3.53;2.93;;;9.30;99.90;;;;;;6182869;23;20190;-90
2022/01/16 11:38:39;;;;;;;17.53;3.37;;;9.30;99.90;;;;;;6207524;23;20197;-92
2022/01/16 11:41:16;;;;;;;2.17;2.03;;;9.30;99.90;;;;;;6206822;23;20608;-92
2022/01/16 11:43:50;;;;;;;3.10;1.17;;;9.30;99.90;;;;;;6207710;23;20726;-92
2022/01/16 11:46:17;;;;;;;15.57;1.90;;;9.30;99.90;;;;;;6209599;23;20186;-91
2022/01/16 11:49:01;;;;;;;1.07;1.07;;;9.30;99.90;;;;;;6184461;23;20158;-90
2022/01/16 11:51:36;;;;;;;2.57;2.10;;;9.40;99.90;;;;;;6210396;23;20153;-89
2022/01/16 11:54:04;;;;;;;7.27;2.37;;;9.30;99.90;;;;;;6209198;23;20162;-90
2022/01/16 11:59:14;;;;;;;3.10;2.90;;;9.30;99.90;;;;;;6210296;23;20201;-90
2022/01/16 12:01:49;;;;;;;2.40;1.93;;;9.40;99.90;;;;;;6209182;23;20565;-90
2022/01/16 12:04:29;;;;;;;3.17;2.10;;;9.30;99.90;;;;;;6210453;23;20200;-90
2022/01/16 12:07:15;;;;;;;14.43;3.07;;;9.40;99.90;;;;;;6209366;23;20220;-90
2022/01/16 12:09:49;;;;;;;4.17;2.27;;;9.40;99.90;;;;;;6209176;23;20168;-90
2022/01/16 12:12:35;;;;;;;2.57;2.37;;;9.40;99.90;;;;;;6210213;23;20142;-90
2022/01/16 12:15:16;;;;;;;3.30;1.63;;;9.30;99.90;;;;;;6210077;23;20194;-90
2022/01/16 12:17:45;;;;;;;10.90;2.53;;;9.30;99.90;;;;;;6209217;23;20272;-90
2022/01/16 12:20:11;;;;;;;8.30;2.47;;;9.30;99.90;;;;;;6208579;23;20228;-89
2022/01/16 12:22:46;;;;;;;3.00;2.07;;;9.20;99.90;;;;;;6209007;23;20209;-90
2022/01/16 12:25:28;;;;;;;1.93;1.77;;;9.20;99.90;;;;;;6208959;23;20650;-90
2022/01/16 12:28:05;;;;;;;1.70;1.37;;;9.20;99.90;;;;;;6209007;23;20190;-90
2022/01/16 12:30:52;;;;;;;3.63;1.93;;;9.20;99.90;;;;;;6204950;23;20154;-90
2022/01/16 12:33:40;;;;;;;7.30;4.10;;;9.10;99.90;;;;;;6209539;23;20197;-90
2022/01/16 12:36:08;;;;;;;7.20;2.87;;;9.10;99.90;;;;;;6208817;23;20200;-87
2022/01/16 12:38:46;;;;;;;4.63;1.60;;;9.10;99.90;;;;;;6207012;23;20206;-90
2022/01/16 12:41:17;;;;;;;3.67;1.70;;;9.10;99.90;;;;;;6207484;23;20234;-91
2022/01/16 12:44:04;;;;;;;6.50;2.27;;;9.10;99.90;;;;;;6207547;23;20559;-90
2022/01/16 12:46:43;;;;;;;3.80;1.83;;;9.20;99.90;;;;;;6208049;23;20189;-90
2022/01/16 12:49:18;;;;;;;2.13;1.77;;;9.10;99.90;;;;;;6208161;23;20186;-91
2022/01/16 12:51:50;;;;;;;2.13;1.93;;;9.10;99.90;;;;;;6207790;23;20240;-90
2022/01/16 12:54:18;;;;;;;5.73;2.83;;;9.10;99.90;;;;;;6209179;23;20281;-90
2022/01/16 12:56:59;;;;;;;7.87;3.77;;;9.20;99.90;;;;;;6208087;23;20377;-89
2022/01/16 12:59:30;;;;;;;2.60;2.30;;;9.20;99.90;;;;;;6207989;23;20741;-89
2022/01/16 13:01:58;;;;;;;6.93;2.93;;;9.20;99.90;;;;;;6207475;23;20268;-90
2022/01/16 13:04:32;;;;;;;8.03;2.10;;;9.20;99.90;;;;;;6181936;23;20651;-90
2022/01/16 13:07:09;;;;;;;2.93;2.30;;;9.20;99.90;;;;;;6207891;23;20198;-90
2022/01/16 13:09:35;;;;;;;2.33;2.23;;;9.20;99.90;;;;;;6207491;23;20180;-91
2022/01/16 13:12:02;;;;;;;1.53;1.43;;;9.30;99.90;;;;;;6209057;23;20154;-90
2022/01/16 13:14:32;;;;;;;0.43;0.43;;;9.30;99.90;;;;;;6207438;23;20343;-91
2022/01/16 13:17:08;;;;;;;3.20;2.37;;;9.40;99.90;;;;;;6207699;23;20280;-91
2022/01/16 13:19:56;;;;;;;19.13;2.40;;;9.40;99.90;;;;;;6183112;23;20242;-91
2022/01/16 13:22:37;;;;;;;2.50;1.93;;;9.40;99.90;;;;;;6187310;23;20190;-91
2022/01/16 13:25:07;;;;;;;2.63;1.63;;;9.40;99.90;;;;;;6207731;23;20194;-91
2022/01/16 13:27:41;;;;;;;1.90;1.80;;;9.30;99.90;;;;;;6209069;23;20316;-90
2022/01/16 13:30:11;;;;;;;5.70;3.43;;;9.30;99.90;;;;;;6207507;23;20193;-91
2022/01/16 13:32:43;;;;;;;4.60;1.80;;;9.30;99.90;;;;;;6195513;23;20200;-91
2022/01/16 13:35:22;;;;;;;3.13;2.90;;;9.20;99.90;;;;;;6183945;23;20214;-91
2022/01/16 13:37:52;;;;;;;4.93;2.13;;;9.10;99.90;;;;;;6207449;23;20201;-90
2022/01/16 13:40:22;;;;;;;2.30;2.10;;;9.20;99.90;;;;;;6182547;23;20213;-90
2022/01/16 13:45:31;;;;;;;2.37;2.07;;;9.20;99.90;;;;;;6206346;23;20170;-91
2022/01/16 13:48:19;;;;;;;6.77;3.07;;;9.20;99.90;;;;;;6207723;23;20196;-91
2022/01/16 13:50:57;;;;;;;2.77;2.27;;;9.10;99.90;;;;;;6207040;23;20204;-88
2022/01/16 13:53:42;;;;;;;6.03;3.37;;;9.20;99.90;;;;;;6206655;23;20197;-89